createdAt,value
2018-10-02T00:01:06.573Z,4.50
2018-10-02T00:03:37.566Z,7.30
2018-10-02T00:06:09.381Z,6.33
2018-10-02T00:08:39.838Z,7.80
2018-10-02T00:11:16.342Z,12.37
2018-10-02T00:13:52.261Z,7.17
2018-10-02T00:16:23.497Z,4.93
2018-10-02T00:18:54.039Z,5.70
2018-10-02T00:21:24.979Z,14.43
2018-10-02T00:23:55.398Z,4.07
2018-10-02T00:26:25.902Z,8.67
2018-10-02T00:28:56.650Z,6.40
2018-10-02T00:31:27.129Z,5.43
2018-10-02T00:33:57.732Z,8.67
2018-10-02T00:36:28.185Z,6.37
2018-10-02T00:38:58.691Z,8.93
2018-10-02T00:41:29.135Z,6.43
2018-10-02T00:43:59.644Z,6.93
2018-10-02T00:46:30.891Z,4.23
2018-10-02T00:49:01.727Z,8.50
2018-10-02T00:51:32.170Z,6.53
2018-10-02T00:54:02.918Z,6.30
2018-10-02T00:56:34.135Z,5.47
2018-10-02T00:59:04.762Z,6.67
2018-10-02T01:01:35.499Z,8.67
2018-10-02T01:04:05.984Z,6.17
2018-10-02T01:06:36.851Z,6.10
2018-10-02T01:09:10.408Z,7.53
2018-10-02T01:11:41.527Z,7.43
2018-10-02T01:14:12.453Z,9.70
2018-10-02T01:16:43.934Z,8.77
2018-10-02T01:19:14.416Z,8.23
2018-10-02T01:21:45.306Z,5.03
2018-10-02T01:24:15.761Z,7.33
2018-10-02T01:26:46.522Z,6.53
2018-10-02T01:29:17.059Z,10.27
2018-10-02T01:31:47.898Z,8.77
2018-10-02T01:34:18.373Z,10.17
2018-10-02T01:36:49.779Z,6.97
2018-10-02T01:39:20.556Z,12.17
2018-10-02T01:41:51.392Z,14.20
2018-10-02T01:44:21.893Z,12.67
2018-10-02T01:46:53.026Z,14.23
2018-10-02T01:49:23.556Z,15.23
2018-10-02T01:51:54.190Z,10.67
2018-10-02T01:54:25.305Z,10.40
2018-10-02T01:56:55.794Z,12.70
2018-10-02T01:59:27.183Z,10.60
2018-10-02T02:01:57.656Z,9.27
2018-10-02T02:04:28.368Z,9.60
2018-10-02T02:07:01.054Z,9.70
2018-10-02T02:09:31.787Z,12.50
2018-10-02T02:12:02.707Z,13.80
2018-10-02T02:14:33.256Z,11.57
2018-10-02T02:17:03.800Z,10.17
2018-10-02T02:19:35.207Z,12.50
2018-10-02T02:22:05.848Z,9.30
2018-10-02T02:24:36.719Z,12.03
2018-10-02T02:27:07.485Z,11.30
2018-10-02T02:29:38.450Z,13.97
2018-10-02T02:32:09.498Z,9.00
2018-10-02T02:34:40.568Z,9.50
2018-10-02T02:37:11.048Z,10.10
2018-10-02T02:39:42.003Z,10.20
2018-10-02T02:42:12.482Z,8.80
2018-10-02T02:44:43.086Z,8.33
2018-10-02T02:47:19.357Z,7.90
2018-10-02T02:49:55.439Z,10.40
2018-10-02T02:52:28.673Z,9.43
2018-10-02T02:54:59.614Z,8.60
2018-10-02T02:57:30.107Z,8.60
2018-10-02T03:00:01.186Z,8.80
2018-10-02T03:02:31.786Z,10.13
2018-10-02T03:05:02.283Z,9.70
2018-10-02T03:07:33.657Z,11.93
2018-10-02T03:10:04.256Z,11.07
2018-10-02T03:12:35.214Z,9.40
2018-10-02T03:15:05.725Z,6.70
2018-10-02T03:17:36.990Z,8.20
2018-10-02T03:20:07.461Z,8.63
2018-10-02T03:22:38.690Z,11.87
2018-10-02T03:25:09.198Z,9.40
2018-10-02T03:27:40.840Z,8.10
2018-10-02T03:30:11.370Z,7.77
2018-10-02T03:32:41.790Z,8.17
2018-10-02T03:35:13.114Z,9.47
2018-10-02T03:37:43.588Z,8.97
2018-10-02T03:40:14.819Z,5.97
2018-10-02T03:42:45.350Z,6.23
2018-10-02T03:45:15.755Z,9.27
2018-10-02T03:47:46.315Z,9.13
2018-10-02T03:50:16.836Z,6.10
2018-10-02T03:52:47.902Z,8.23
2018-10-02T03:55:18.899Z,6.30
2018-10-02T03:57:49.672Z,10.27
2018-10-02T04:00:20.144Z,4.30
2018-10-02T04:02:50.713Z,6.97
2018-10-02T04:05:21.142Z,8.47
2018-10-02T04:07:52.119Z,8.80
2018-10-02T04:10:22.917Z,10.60
2018-10-02T04:12:53.902Z,8.53
2018-10-02T04:15:24.599Z,9.97
2018-10-02T04:17:55.098Z,10.43
2018-10-02T04:20:25.578Z,6.43
2018-10-02T04:22:56.133Z,6.60
2018-10-02T04:25:27.129Z,6.93
2018-10-02T04:27:57.648Z,10.30
2018-10-02T04:30:28.207Z,5.07
2018-10-02T04:32:58.742Z,7.00
2018-10-02T04:35:35.838Z,8.37
2018-10-02T04:38:06.386Z,12.80
2018-10-02T04:40:36.954Z,8.30
2018-10-02T04:43:07.973Z,4.93
2018-10-02T04:45:38.945Z,5.77
2018-10-02T04:48:09.798Z,6.87
2018-10-02T04:50:40.847Z,6.63
2018-10-02T04:53:11.537Z,3.90
2018-10-02T04:55:42.127Z,5.43
2018-10-02T04:58:12.542Z,9.20
2018-10-02T05:00:43.049Z,11.57
2018-10-02T05:03:14.104Z,6.73
2018-10-02T05:05:44.607Z,12.83
2018-10-02T05:08:15.064Z,9.53
2018-10-02T05:10:45.617Z,7.83
2018-10-02T05:13:16.195Z,8.03
2018-10-02T05:15:46.625Z,7.13
2018-10-02T05:18:17.243Z,5.07
2018-10-02T05:20:47.911Z,7.83
2018-10-02T05:23:18.467Z,9.20
2018-10-02T05:25:48.981Z,9.67
2018-10-02T05:28:19.503Z,7.73
2018-10-02T05:30:49.990Z,5.97
2018-10-02T05:33:21.255Z,5.20
2018-10-02T05:35:51.734Z,10.77
2018-10-02T05:38:22.313Z,7.20
2018-10-02T05:40:59.191Z,6.13
2018-10-02T05:43:29.727Z,4.73
2018-10-02T05:46:00.210Z,5.13
2018-10-02T05:48:30.958Z,6.00
2018-10-02T05:51:01.502Z,6.03
2018-10-02T05:53:33.214Z,8.47
2018-10-02T05:56:03.894Z,10.60
2018-10-02T05:58:34.723Z,7.60
2018-10-02T06:01:05.581Z,8.30
2018-10-02T06:03:36.202Z,5.63
2018-10-02T06:06:06.740Z,8.73
2018-10-02T06:08:37.784Z,6.73
2018-10-02T06:11:08.371Z,7.70
2018-10-02T06:13:39.357Z,7.50
2018-10-02T06:16:09.823Z,6.90
2018-10-02T06:18:40.411Z,8.67
2018-10-02T06:21:11.418Z,10.47
2018-10-02T06:23:42.070Z,5.87
2018-10-02T06:26:12.822Z,6.60
2018-10-02T06:28:43.365Z,5.33
2018-10-02T06:31:14.338Z,8.40
2018-10-02T06:33:44.842Z,11.23
2018-10-02T06:36:15.409Z,5.20
2018-10-02T06:38:46.068Z,5.83
2018-10-02T06:41:16.744Z,7.33
2018-10-02T06:43:47.350Z,5.40
2018-10-02T06:46:17.751Z,5.00
2018-10-02T06:48:48.311Z,13.17
2018-10-02T06:51:18.965Z,6.63
2018-10-02T06:53:49.712Z,8.73
2018-10-02T06:56:20.765Z,9.97
2018-10-02T06:58:51.354Z,8.20
2018-10-02T07:01:22.204Z,5.37
2018-10-02T07:03:52.796Z,5.20
2018-10-02T07:06:23.283Z,8.13
2018-10-02T07:08:54.286Z,7.57
2018-10-02T07:11:25.221Z,5.33
2018-10-02T07:13:55.666Z,7.47
2018-10-02T07:16:26.154Z,8.50
2018-10-02T07:18:57.332Z,6.03
2018-10-02T07:21:27.813Z,8.67
2018-10-02T07:23:58.615Z,7.30
2018-10-02T07:26:29.150Z,8.57
2018-10-02T07:29:00.259Z,6.93
2018-10-02T07:31:30.794Z,6.27
2018-10-02T07:34:01.909Z,8.23
2018-10-02T07:36:32.417Z,6.80
2018-10-02T07:39:05.263Z,7.50
2018-10-02T07:41:35.799Z,5.77
2018-10-02T07:44:06.583Z,6.60
2018-10-02T07:46:37.148Z,5.80
2018-10-02T07:49:07.603Z,6.03
2018-10-02T07:51:38.071Z,6.73
2018-10-02T07:54:08.638Z,6.00
2018-10-02T07:56:39.242Z,6.20
2018-10-02T07:59:10.457Z,5.80
2018-10-02T08:01:41.014Z,6.97
2018-10-02T08:04:12.293Z,4.30
2018-10-02T08:06:42.834Z,8.33
2018-10-02T08:09:13.556Z,6.13
2018-10-02T08:11:44.231Z,5.60
2018-10-02T08:14:14.691Z,5.53
2018-10-02T08:16:45.353Z,5.03
2018-10-02T08:19:16.453Z,6.30
2018-10-02T08:21:46.899Z,6.13
2018-10-02T08:24:17.735Z,10.43
2018-10-02T08:26:48.258Z,5.13
2018-10-02T08:29:18.708Z,7.63
2018-10-02T08:31:49.543Z,5.87
2018-10-02T08:34:20.083Z,7.37
2018-10-02T08:36:50.690Z,6.90
2018-10-02T08:39:21.167Z,5.13
2018-10-02T08:41:51.831Z,5.50
2018-10-02T08:44:22.688Z,6.10
2018-10-02T08:46:53.645Z,3.53
2018-10-02T08:49:24.642Z,4.80
2018-10-02T08:51:55.269Z,5.70
2018-10-02T08:54:25.748Z,5.60
2018-10-02T08:56:56.260Z,4.57
2018-10-02T08:59:26.778Z,5.40
2018-10-02T09:01:57.891Z,6.63
2018-10-02T09:04:28.413Z,5.63
2018-10-02T09:06:59.186Z,8.80
2018-10-02T09:09:29.796Z,3.53
2018-10-02T09:12:00.618Z,3.83
2018-10-02T09:14:31.198Z,8.40
2018-10-02T09:17:03.009Z,4.43
2018-10-02T09:19:37.342Z,4.77
2018-10-02T09:22:09.237Z,3.43
2018-10-02T09:24:40.457Z,5.57
2018-10-02T09:27:11.493Z,3.40
2018-10-02T09:29:47.535Z,3.50
2018-10-02T09:32:23.407Z,5.43
2018-10-02T09:34:59.567Z,4.03
2018-10-02T09:37:35.377Z,4.03
2018-10-02T09:40:11.514Z,4.30
2018-10-02T09:42:47.261Z,3.87
2018-10-02T09:45:18.067Z,4.77
2018-10-02T09:47:48.582Z,4.87
2018-10-02T09:50:19.418Z,4.63
2018-10-02T09:52:50.006Z,3.57
2018-10-02T09:55:20.801Z,3.53
2018-10-02T09:57:51.392Z,4.47
2018-10-02T10:00:22.652Z,9.00
2018-10-02T10:02:56.709Z,5.63
2018-10-02T10:05:28.336Z,4.23
2018-10-02T10:07:59.844Z,2.93
2018-10-02T10:10:30.759Z,2.67
2018-10-02T10:13:01.725Z,2.90
2018-10-02T10:15:32.374Z,6.27
2018-10-02T10:18:02.914Z,4.37
2018-10-02T10:20:33.418Z,5.47
2018-10-02T10:23:04.101Z,4.23
2018-10-02T10:25:34.589Z,4.40
2018-10-02T10:28:05.119Z,2.30
2018-10-02T10:30:37.840Z,3.60
2018-10-02T10:33:08.580Z,4.13
2018-10-02T10:35:40.224Z,5.73
2018-10-02T10:38:10.807Z,5.33
2018-10-02T10:40:42.397Z,4.00
2018-10-02T10:43:13.574Z,1.77
2018-10-02T10:45:44.110Z,3.10
2018-10-02T10:48:14.686Z,4.40
2018-10-02T10:50:45.262Z,2.63
2018-10-02T10:53:15.931Z,1.90
2018-10-02T10:55:46.989Z,1.50
2018-10-02T10:58:17.759Z,3.17
2018-10-02T11:00:48.253Z,2.87
2018-10-02T11:03:19.646Z,1.10
2018-10-02T11:05:50.468Z,1.63
2018-10-02T11:08:21.122Z,2.97
2018-10-02T11:10:51.625Z,3.10
2018-10-02T11:13:22.111Z,2.60
2018-10-02T11:15:52.660Z,1.40
2018-10-02T11:18:23.428Z,1.43
2018-10-02T11:20:53.888Z,1.10
2018-10-02T11:23:24.361Z,1.53
2018-10-02T11:25:54.976Z,1.63
2018-10-02T11:28:25.749Z,2.03
2018-10-02T11:30:56.248Z,1.57
2018-10-02T11:33:26.866Z,1.30
2018-10-02T11:35:57.358Z,1.23
2018-10-02T11:38:27.879Z,1.40
2018-10-02T11:41:00.024Z,1.63
2018-10-02T11:43:30.737Z,2.80
2018-10-02T11:46:01.982Z,1.13
2018-10-02T11:48:32.895Z,2.20
2018-10-02T11:51:03.473Z,0.70
2018-10-02T11:53:34.082Z,1.00
2018-10-02T11:56:05.555Z,0.80
2018-10-02T11:58:36.963Z,0.87
2018-10-02T12:01:07.936Z,1.33
2018-10-02T12:03:40.804Z,1.47
2018-10-02T12:06:11.541Z,1.33
2018-10-02T12:08:42.055Z,0.70
2018-10-02T12:11:12.574Z,0.60
2018-10-02T12:13:43.286Z,0.67
2018-10-02T12:16:13.777Z,0.77
2018-10-02T12:18:44.289Z,0.83
2018-10-02T12:21:14.891Z,0.70
2018-10-02T12:23:45.407Z,0.43
2018-10-02T12:26:16.139Z,0.40
2018-10-02T12:28:46.884Z,0.93
2018-10-02T12:31:17.663Z,0.57
2018-10-02T12:33:48.050Z,0.67
2018-10-02T12:36:18.626Z,0.50
2018-10-02T12:38:49.279Z,2.73
2018-10-02T12:41:21.070Z,2.50
2018-10-02T12:43:51.551Z,0.50
2018-10-02T12:46:22.691Z,1.07
2018-10-02T12:48:53.161Z,0.60
2018-10-02T12:51:26.139Z,1.00
2018-10-02T12:53:56.940Z,1.07
2018-10-02T12:56:27.777Z,0.70
2018-10-02T12:58:58.392Z,0.50
2018-10-02T13:01:29.652Z,1.50
2018-10-02T13:04:00.250Z,0.50
2018-10-02T13:06:30.792Z,3.13
2018-10-02T13:09:01.276Z,0.70
2018-10-02T13:11:33.026Z,0.60
2018-10-02T13:14:03.593Z,0.67
2018-10-02T13:16:34.350Z,0.67
2018-10-02T13:19:05.798Z,1.30
2018-10-02T13:21:36.311Z,1.53
2018-10-02T13:24:06.908Z,1.27
2018-10-02T13:26:38.535Z,0.70
2018-10-02T13:29:09.247Z,0.90
2018-10-02T13:31:40.351Z,1.37
2018-10-02T13:34:11.271Z,0.70
2018-10-02T13:36:42.226Z,0.50
2018-10-02T13:39:13.103Z,0.80
2018-10-02T13:41:44.047Z,1.70
2018-10-02T13:44:14.778Z,0.40
2018-10-02T13:46:45.307Z,2.13
2018-10-02T13:49:15.882Z,0.93
2018-10-02T13:51:46.598Z,2.97
2018-10-02T13:54:17.715Z,1.60
2018-10-02T13:56:48.299Z,0.97
2018-10-02T13:59:18.803Z,1.20
2018-10-02T14:01:49.335Z,1.93
2018-10-02T14:04:21.097Z,0.93
2018-10-02T14:06:52.549Z,1.90
2018-10-02T14:09:23.105Z,0.60
2018-10-02T14:11:53.880Z,0.77
2018-10-02T14:14:24.675Z,0.50
2018-10-02T14:16:56.101Z,0.53
2018-10-02T14:19:26.562Z,0.60
2018-10-02T14:21:58.393Z,0.50
2018-10-02T14:24:28.863Z,1.70
2018-10-02T14:27:00.887Z,1.77
2018-10-02T14:29:31.691Z,0.83
2018-10-02T14:32:03.253Z,1.00
2018-10-02T14:34:33.740Z,2.93
2018-10-02T14:37:04.482Z,1.60
2018-10-02T14:39:34.968Z,0.60
2018-10-02T14:42:06.103Z,7.20
2018-10-02T14:44:36.702Z,5.00
2018-10-02T14:47:08.139Z,7.77
2018-10-02T14:49:38.701Z,10.80
2018-10-02T14:52:09.191Z,5.67
2018-10-02T14:54:40.206Z,4.03
2018-10-02T14:57:11.024Z,4.87
2018-10-02T14:59:43.127Z,8.17
2018-10-02T15:02:13.748Z,2.87
2018-10-02T15:04:45.468Z,14.97
2018-10-02T15:07:16.813Z,13.97
2018-10-02T15:09:47.612Z,5.53
2018-10-02T15:12:18.882Z,3.67
2018-10-02T15:14:49.394Z,5.57
2018-10-02T15:17:19.909Z,6.97
2018-10-02T15:19:51.744Z,22.97
2018-10-02T15:22:22.258Z,5.80
2018-10-02T15:24:52.814Z,7.77
2018-10-02T15:27:23.460Z,5.97
2018-10-02T15:29:53.969Z,6.30
2018-10-02T15:32:24.542Z,3.57
2018-10-02T15:34:55.006Z,3.30
2018-10-02T15:37:25.760Z,6.67
2018-10-02T15:39:56.252Z,4.40
2018-10-02T15:42:26.813Z,4.37
2018-10-02T15:44:58.563Z,4.30
2018-10-02T15:47:29.023Z,8.43
2018-10-02T15:49:59.539Z,4.20
2018-10-02T15:52:30.002Z,7.17
2018-10-02T15:55:01.326Z,4.70
2018-10-02T15:57:31.805Z,3.83
2018-10-02T16:00:02.454Z,5.70
2018-10-02T16:02:33.012Z,6.00
2018-10-02T16:05:04.194Z,5.50
2018-10-02T16:07:34.846Z,5.13
2018-10-02T16:10:05.351Z,7.87
2018-10-02T16:12:36.694Z,6.67
2018-10-02T16:15:08.026Z,5.67
2018-10-02T16:17:39.634Z,9.03
2018-10-02T16:20:10.568Z,4.43
2018-10-02T16:22:41.098Z,4.83
2018-10-02T16:25:11.600Z,5.10
2018-10-02T16:27:42.213Z,6.57
2018-10-02T16:30:12.708Z,5.90
2018-10-02T16:32:43.165Z,6.33
2018-10-02T16:35:14.002Z,7.33
2018-10-02T16:37:46.069Z,6.43
2018-10-02T16:40:16.595Z,9.30
2018-10-02T16:42:48.031Z,6.60
2018-10-02T16:45:18.511Z,5.80
2018-10-02T16:47:50.015Z,6.60
2018-10-02T16:50:20.523Z,6.83
2018-10-02T16:52:51.346Z,8.00
2018-10-02T16:55:21.963Z,5.87
2018-10-02T16:57:52.527Z,7.73
2018-10-02T17:00:24.260Z,8.10
2018-10-02T17:02:54.766Z,6.70
2018-10-02T17:05:26.399Z,6.67
2018-10-02T17:07:57.000Z,8.47
2018-10-02T17:10:27.475Z,11.17
2018-10-02T17:12:57.965Z,8.20
2018-10-02T17:15:28.547Z,10.20
2018-10-02T17:17:59.103Z,8.47
2018-10-02T17:20:30.387Z,9.60
2018-10-02T17:23:01.002Z,6.17
2018-10-02T17:25:31.559Z,7.20
2018-10-02T17:28:02.911Z,8.53
2018-10-02T17:30:33.434Z,8.43
2018-10-02T17:33:05.578Z,9.27
2018-10-02T17:35:36.465Z,9.20
2018-10-02T17:38:07.238Z,10.67
2018-10-02T17:40:38.290Z,9.37
2018-10-02T17:43:09.631Z,7.63
2018-10-02T17:45:40.182Z,11.50
2018-10-02T17:48:10.796Z,9.87
2018-10-02T17:50:42.175Z,9.43
2018-10-02T17:53:12.703Z,11.20
2018-10-02T17:55:43.200Z,13.40
2018-10-02T17:58:14.344Z,10.30
2018-10-02T18:00:44.938Z,8.17
2018-10-02T18:03:15.430Z,10.60
2018-10-02T18:05:46.981Z,12.80
2018-10-02T18:08:17.466Z,11.20
2018-10-02T18:10:48.830Z,9.53
2018-10-02T18:13:19.388Z,11.30
2018-10-02T18:15:51.034Z,11.40
2018-10-02T18:18:21.651Z,11.83
2018-10-02T18:20:52.457Z,13.23
2018-10-02T18:23:22.973Z,12.17
2018-10-02T18:25:53.464Z,9.87
2018-10-02T18:28:24.311Z,11.47
2018-10-02T18:30:54.829Z,11.17
2018-10-02T18:33:26.139Z,9.03
2018-10-02T18:35:57.057Z,10.17
2018-10-02T18:38:27.925Z,14.87
2018-10-02T18:40:58.718Z,12.60
2018-10-02T18:43:29.634Z,9.93
2018-10-02T18:46:00.174Z,10.07
2018-10-02T18:48:31.402Z,11.27
2018-10-02T18:51:01.924Z,11.53
2018-10-02T18:53:33.518Z,13.30
2018-10-02T18:56:04.187Z,16.43
2018-10-02T18:58:35.776Z,11.40
2018-10-02T19:01:06.199Z,10.57
2018-10-02T19:03:36.782Z,10.30
2018-10-02T19:06:07.919Z,12.93
2018-10-02T19:08:43.729Z,16.93
2018-10-02T19:11:19.589Z,12.43
2018-10-02T19:13:50.927Z,14.30
2018-10-02T19:16:26.585Z,12.47
2018-10-02T19:18:57.158Z,13.53
2018-10-02T19:21:28.664Z,13.47
2018-10-02T19:24:00.230Z,12.97
2018-10-02T19:26:31.160Z,15.20
2018-10-02T19:29:02.711Z,14.27
2018-10-02T19:31:38.344Z,13.53
2018-10-02T19:34:08.950Z,14.87
2018-10-02T19:36:39.509Z,12.77
2018-10-02T19:39:14.664Z,12.70
2018-10-02T19:41:45.191Z,13.37
2018-10-02T19:44:15.663Z,16.20
2018-10-02T19:46:54.946Z,13.30
2018-10-02T19:49:27.120Z,16.03
2018-10-02T19:52:05.742Z,18.47
2018-10-02T19:54:36.206Z,23.40
2018-10-02T19:57:08.996Z,17.20
2018-10-02T19:59:39.921Z,14.07
2018-10-02T20:02:10.406Z,16.10
2018-10-02T20:04:40.959Z,18.23
2018-10-02T20:07:11.521Z,15.73
2018-10-02T20:09:42.119Z,18.23
2018-10-02T20:12:13.725Z,17.80
2018-10-02T20:14:45.146Z,17.30
2018-10-02T20:17:15.659Z,16.07
2018-10-02T20:19:46.153Z,15.10
2018-10-02T20:22:16.668Z,19.53
2018-10-02T20:24:47.245Z,16.03
2018-10-02T20:27:17.776Z,15.37
2018-10-02T20:29:48.300Z,16.33
2018-10-02T20:32:18.782Z,15.07
2018-10-02T20:34:49.842Z,18.67
2018-10-02T20:37:20.381Z,17.37
2018-10-02T20:39:50.875Z,17.33
2018-10-02T20:42:21.781Z,17.47
2018-10-02T20:44:52.353Z,15.57
2018-10-02T20:47:23.245Z,15.77
2018-10-02T20:49:53.994Z,15.47
2018-10-02T20:52:24.506Z,15.93
2018-10-02T20:54:55.336Z,16.47
2018-10-02T20:57:25.865Z,14.67
2018-10-02T20:59:56.334Z,17.87
2018-10-02T21:02:26.782Z,17.47
2018-10-02T21:04:58.171Z,14.30
2018-10-02T21:07:29.112Z,16.77
2018-10-02T21:09:59.566Z,17.13
2018-10-02T21:12:30.147Z,18.03
2018-10-02T21:15:00.643Z,18.20
2018-10-02T21:17:31.210Z,18.70
2018-10-02T21:20:01.983Z,18.10
2018-10-02T21:22:32.493Z,18.60
2018-10-02T21:25:02.984Z,19.17
2018-10-02T21:27:33.656Z,17.97
2018-10-02T21:30:04.273Z,20.00
2018-10-02T21:32:35.150Z,19.30
2018-10-02T21:35:06.114Z,16.67
2018-10-02T21:37:37.071Z,18.20
2018-10-02T21:40:08.069Z,16.47
2018-10-02T21:42:38.840Z,16.40
2018-10-02T21:45:09.412Z,14.23
2018-10-02T21:47:40.165Z,15.83
2018-10-02T21:50:10.721Z,16.07
2018-10-02T21:52:41.937Z,17.33
2018-10-02T21:55:12.477Z,18.40
2018-10-02T21:57:42.983Z,20.00
2018-10-02T22:00:13.483Z,17.93
2018-10-02T22:02:44.443Z,17.67
2018-10-02T22:05:15.242Z,18.30
2018-10-02T22:07:45.819Z,16.77
2018-10-02T22:10:16.282Z,18.40
2018-10-02T22:12:46.878Z,18.97
2018-10-02T22:15:17.356Z,19.10
2018-10-02T22:17:48.249Z,22.40
2018-10-02T22:20:18.791Z,17.67
2018-10-02T22:22:49.262Z,17.77
2018-10-02T22:25:20.289Z,17.43
2018-10-02T22:27:51.083Z,18.53
2018-10-02T22:30:21.578Z,18.33
2018-10-02T22:32:52.478Z,20.63
2018-10-02T22:35:22.924Z,20.47
2018-10-02T22:37:53.638Z,20.87
2018-10-02T22:40:24.309Z,17.50
2018-10-02T22:42:54.953Z,19.63
2018-10-02T22:45:25.458Z,18.10
2018-10-02T22:47:56.529Z,22.53
2018-10-02T22:50:27.069Z,15.77
2018-10-02T22:52:57.538Z,16.90
2018-10-02T22:55:28.140Z,16.40
2018-10-02T22:57:58.961Z,16.73
2018-10-02T23:00:29.971Z,13.67
2018-10-02T23:03:00.500Z,14.03
2018-10-02T23:05:32.024Z,15.77
2018-10-02T23:08:02.966Z,18.37
2018-10-02T23:10:33.446Z,14.57
2018-10-02T23:13:04.316Z,14.23
2018-10-02T23:15:35.755Z,15.23
2018-10-02T23:18:06.518Z,13.70
2018-10-02T23:20:37.084Z,15.63
2018-10-02T23:23:08.056Z,15.90
2018-10-02T23:25:38.683Z,13.80
2018-10-02T23:28:09.574Z,19.07
2018-10-02T23:30:40.058Z,15.67
2018-10-02T23:33:11.405Z,15.93
2018-10-02T23:35:41.854Z,18.07
2018-10-02T23:38:12.966Z,15.67
2018-10-02T23:40:43.455Z,14.70
2018-10-02T23:43:14.994Z,14.80
2018-10-02T23:45:45.482Z,12.87
2018-10-02T23:48:15.966Z,12.97
2018-10-02T23:50:47.061Z,13.43
2018-10-02T23:53:17.589Z,14.90
2018-10-02T23:55:48.034Z,16.70
2018-10-02T23:58:18.648Z,12.67
